Online since October of 2007


Bigbaywx more information Bigbaywx


mount mesnard more information Mount Mesnard


visit our other weather sites:

Template documentation
and downloads

And another site


CBI


nearby metar reports

   
KSAW - Sawyer, Michigan
updated: Feb 20 2024 4:47 pm
clear  
clear  
   wind: south 16.1 mph
wind: south 16.1 mph
temperature: 42.8°F
wind chill: 35.6°F
dew point: 30.2°F
humidity: 61%
barometer: 29.97 inHg
clouds: clear
visibility: 10 mi
cloud details: clear
KSAW 202147Z 17014KT 10SM CLR 06/M01 A2997
KESC - Escanaba, Michigan
updated: Feb 20 2024 4:56 pm
mist, clear  
mist, clear  
   wind: sse 9.2 mph
wind: sse 9.2 mph
temperature: 35.6°F
wind chill: 28.4°F
dew point: 35.6°F
humidity: 100%
barometer: 30.05 inHg
clouds: clear
visibility: 5 mi
cloud details: clear
KESC 202156Z AUTO 15008KT 5SM BR CLR 02/02 A3005 RMK AO2 SLP190 T00220022 FZRANO
KIMT - Iron Mountain, MI
updated: Feb 20 2024 4:54 pm
clear  
clear  
   wind: sse 8.1 mph
wind: sse 8.1 mph
temperature: 46.4°F
wind chill: 42.8°F
dew point: 28.4°F
humidity: 50%
barometer: 29.96 inHg
clouds: clear
visibility: 10 mi
cloud details: clear
KIMT 202154Z AUTO 15007KT 10SM CLR 08/M02 A2996 RMK AO2 SLP159 T00831022
KGRB - Green Bay, WI
updated: Feb 20 2024 4:53 pm
few clouds  
few clouds  
   wind: sse 15 mph
wind: sse 15 mph
temperature: 48.2°F
wind chill: 42.8°F
dew point: 33.8°F
humidity: 58%
barometer: 30.02 inHg
clouds: few clouds
visibility: 10 mi
cloud details: few clouds 1829 m
KGRB 202153Z 15013KT 10SM FEW060 09/01 A3002 RMK AO2 SLP171 T00890006
KDET - Detroit, MI
updated: Feb 20 2024 4:53 pm
clear  
clear  
   wind: sse 10.4 mph
wind: sse 10.4 mph
temperature: 48.2°F
wind chill: 44.6°F
dew point: 23°F
humidity: 37%
barometer: 30.23 inHg
clouds: clear
visibility: 10 mi
cloud details: clear
KDET 202153Z 15009KT 10SM CLR 09/M05 A3023 RMK AO2 SLP241 T00891050
 

script developed by  Saratoga-weather.org adapted for the template by  Weerstation Leuven

you find our weather info also at:

Weather Underground

midwestern weather network

WeatherlinkIP

Citizen Weather Observer Program (CWOP)

equipment we use:

weather-station
Davis VP2

weather-program
Davis Weatherlink.Com

Davis VP2

Davis Weatherlink.Com